sensor_id;sensor_type;location;lat;lon;timestamp;pressure;altitude;pressure_sealevel;temperature;humidity
54588;BME280;40484;50.198;19.576;2022-12-07T00:02:36;101107.65;;;5.09;60.48
54588;BME280;40484;50.198;19.576;2022-12-07T00:07:37;101108.08;;;5.17;60.14
54588;BME280;40484;50.198;19.576;2022-12-07T00:12:39;101109.60;;;5.21;60.15
54588;BME280;40484;50.198;19.576;2022-12-07T00:17:40;101111.98;;;5.33;59.94
54588;BME280;40484;50.198;19.576;2022-12-07T00:22:42;101111.12;;;5.32;59.86
54588;BME280;40484;50.198;19.576;2022-12-07T00:27:43;101106.80;;;4.93;60.82
54588;BME280;40484;50.198;19.576;2022-12-07T00:32:46;101106.91;;;5.12;60.26
54588;BME280;40484;50.198;19.576;2022-12-07T00:37:47;101101.59;;;5.22;60.00
54588;BME280;40484;50.198;19.576;2022-12-07T00:42:49;101100.66;;;5.42;59.55
54588;BME280;40484;50.198;19.576;2022-12-07T00:47:50;101091.45;;;5.36;59.54
54588;BME280;40484;50.198;19.576;2022-12-07T00:52:52;101097.81;;;5.52;59.19
54588;BME280;40484;50.198;19.576;2022-12-07T00:57:53;101090.34;;;5.59;58.92
54588;BME280;40484;50.198;19.576;2022-12-07T01:02:55;101092.95;;;5.56;58.89
54588;BME280;40484;50.198;19.576;2022-12-07T01:07:56;101081.90;;;5.34;59.35
54588;BME280;40484;50.198;19.576;2022-12-07T01:12:58;101086.65;;;5.42;59.09
54588;BME280;40484;50.198;19.576;2022-12-07T01:18:24;101079.77;;;5.39;58.98
54588;BME280;40484;50.198;19.576;2022-12-07T01:23:26;101081.63;;;5.31;59.38
54588;BME280;40484;50.198;19.576;2022-12-07T01:28:28;101077.45;;;5.13;59.76
54588;BME280;40484;50.198;19.576;2022-12-07T01:33:32;101068.23;;;5.07;59.94
54588;BME280;40484;50.198;19.576;2022-12-07T01:38:33;101072.95;;;5.22;59.60
54588;BME280;40484;50.198;19.576;2022-12-07T01:43:35;101064.95;;;4.99;60.06
54588;BME280;40484;50.198;19.576;2022-12-07T01:48:38;101070.41;;;5.04;60.02
54588;BME280;40484;50.198;19.576;2022-12-07T01:53:43;101063.27;;;5.06;60.09
54588;BME280;40484;50.198;19.576;2022-12-07T01:58:44;101060.39;;;5.06;60.14
54588;BME280;40484;50.198;19.576;2022-12-07T02:03:46;101055.13;;;4.94;60.49
54588;BME280;40484;50.198;19.576;2022-12-07T02:13:53;101042.12;;;5.08;60.23
54588;BME280;40484;50.198;19.576;2022-12-07T02:19:22;101047.87;;;5.00;60.41
54588;BME280;40484;50.198;19.576;2022-12-07T02:24:37;101050.45;;;5.13;60.40
54588;BME280;40484;50.198;19.576;2022-12-07T02:30:13;101050.94;;;5.41;59.71
54588;BME280;40484;50.198;19.576;2022-12-07T02:35:17;101056.41;;;5.36;59.78
54588;BME280;40484;50.198;19.576;2022-12-07T02:40:29;101050.91;;;5.31;59.84
54588;BME280;40484;50.198;19.576;2022-12-07T02:45:31;101041.12;;;5.43;59.59
54588;BME280;40484;50.198;19.576;2022-12-07T02:50:33;101044.53;;;5.39;59.59
54588;BME280;40484;50.198;19.576;2022-12-07T02:55:37;101040.59;;;5.30;59.90
54588;BME280;40484;50.198;19.576;2022-12-07T03:00:44;101027.03;;;5.50;59.38
54588;BME280;40484;50.198;19.576;2022-12-07T03:11:07;101028.59;;;5.36;59.63
54588;BME280;40484;50.198;19.576;2022-12-07T03:22:05;101032.94;;;5.46;59.57
54588;BME280;40484;50.198;19.576;2022-12-07T03:27:06;101026.83;;;5.41;59.62
54588;BME280;40484;50.198;19.576;2022-12-07T03:32:14;101025.23;;;5.43;59.43
54588;BME280;40484;50.198;19.576;2022-12-07T03:37:23;101020.39;;;5.22;59.87
54588;BME280;40484;50.198;19.576;2022-12-07T03:42:23;101020.35;;;5.28;59.92
54588;BME280;40484;50.198;19.576;2022-12-07T03:47:43;101016.64;;;5.04;60.37
54588;BME280;40484;50.198;19.576;2022-12-07T03:52:45;101005.42;;;5.24;59.90
54588;BME280;40484;50.198;19.576;2022-12-07T03:57:44;101003.28;;;5.21;59.94
54588;BME280;40484;50.198;19.576;2022-12-07T04:02:47;101012.20;;;5.14;60.21
54588;BME280;40484;50.198;19.576;2022-12-07T04:07:48;101014.47;;;5.15;60.21
54588;BME280;40484;50.198;19.576;2022-12-07T04:12:50;101011.92;;;4.88;61.02
54588;BME280;40484;50.198;19.576;2022-12-07T04:17:52;101006.91;;;4.85;61.17
54588;BME280;40484;50.198;19.576;2022-12-07T04:22:55;101003.92;;;4.97;60.83
54588;BME280;40484;50.198;19.576;2022-12-07T04:28:24;101005.45;;;5.08;60.51
54588;BME280;40484;50.198;19.576;2022-12-07T04:33:26;101012.05;;;5.01;60.64
54588;BME280;40484;50.198;19.576;2022-12-07T04:38:27;101013.44;;;5.07;60.43
54588;BME280;40484;50.198;19.576;2022-12-07T04:43:29;101012.96;;;4.95;60.55
54588;BME280;40484;50.198;19.576;2022-12-07T04:48:30;101018.45;;;4.93;60.69
54588;BME280;40484;50.198;19.576;2022-12-07T04:53:32;101008.24;;;4.89;60.70
54588;BME280;40484;50.198;19.576;2022-12-07T04:58:33;101008.78;;;4.77;61.05
54588;BME280;40484;50.198;19.576;2022-12-07T05:03:38;101013.80;;;4.80;61.00
54588;BME280;40484;50.198;19.576;2022-12-07T05:08:40;101009.03;;;4.88;60.88
54588;BME280;40484;50.198;19.576;2022-12-07T05:13:42;101000.96;;;4.78;60.85
54588;BME280;40484;50.198;19.576;2022-12-07T05:18:44;101005.23;;;4.84;60.93
54588;BME280;40484;50.198;19.576;2022-12-07T05:23:45;101002.27;;;4.80;60.83
54588;BME280;40484;50.198;19.576;2022-12-07T05:28:54;101003.94;;;4.65;60.97
54588;BME280;40484;50.198;19.576;2022-12-07T05:33:56;101017.09;;;4.35;61.87
54588;BME280;40484;50.198;19.576;2022-12-07T05:38:58;101006.05;;;4.09;62.35
54588;BME280;40484;50.198;19.576;2022-12-07T05:43:59;101008.64;;;4.42;61.54
54588;BME280;40484;50.198;19.576;2022-12-07T05:49:01;101013.88;;;4.38;61.50
54588;BME280;40484;50.198;19.576;2022-12-07T05:54:03;101009.02;;;4.40;61.75
54588;BME280;40484;50.198;19.576;2022-12-07T05:59:04;101008.91;;;4.29;61.59
54588;BME280;40484;50.198;19.576;2022-12-07T06:04:48;101010.29;;;4.57;61.18
54588;BME280;40484;50.198;19.576;2022-12-07T06:09:49;101012.39;;;4.36;61.39
54588;BME280;40484;50.198;19.576;2022-12-07T06:14:51;101015.14;;;4.39;61.30
54588;BME280;40484;50.198;19.576;2022-12-07T06:19:52;101020.28;;;4.53;60.88
54588;BME280;40484;50.198;19.576;2022-12-07T06:24:54;101024.14;;;4.43;61.25
54588;BME280;40484;50.198;19.576;2022-12-07T06:29:55;101026.57;;;4.21;61.55
54588;BME280;40484;50.198;19.576;2022-12-07T06:34:57;101030.26;;;4.34;61.30
54588;BME280;40484;50.198;19.576;2022-12-07T06:39:58;101031.50;;;4.13;61.92
54588;BME280;40484;50.198;19.576;2022-12-07T06:45:00;101031.86;;;4.25;61.86
54588;BME280;40484;50.198;19.576;2022-12-07T06:50:02;101035.37;;;4.19;61.82
54588;BME280;40484;50.198;19.576;2022-12-07T06:55:04;101044.23;;;4.20;61.71
54588;BME280;40484;50.198;19.576;2022-12-07T07:00:06;101037.88;;;4.34;61.53
54588;BME280;40484;50.198;19.576;2022-12-07T07:05:08;101050.80;;;4.18;61.96
54588;BME280;40484;50.198;19.576;2022-12-07T07:10:09;101044.09;;;4.28;61.82
54588;BME280;40484;50.198;19.576;2022-12-07T07:15:11;101049.55;;;4.25;61.88
54588;BME280;40484;50.198;19.576;2022-12-07T07:20:13;101039.63;;;4.17;62.36
54588;BME280;40484;50.198;19.576;2022-12-07T07:25:15;101045.55;;;4.22;62.07
54588;BME280;40484;50.198;19.576;2022-12-07T07:30:21;101036.17;;;4.11;62.74
54588;BME280;40484;50.198;19.576;2022-12-07T07:35:20;101046.02;;;4.54;61.27
54588;BME280;40484;50.198;19.576;2022-12-07T07:40:21;101045.42;;;4.47;61.46
54588;BME280;40484;50.198;19.576;2022-12-07T07:45:25;101044.49;;;4.50;61.37
54588;BME280;40484;50.198;19.576;2022-12-07T07:50:52;101048.40;;;4.58;61.17
54588;BME280;40484;50.198;19.576;2022-12-07T07:55:54;101061.27;;;4.33;61.56
54588;BME280;40484;50.198;19.576;2022-12-07T08:00:55;101064.27;;;4.30;62.06
54588;BME280;40484;50.198;19.576;2022-12-07T08:05:57;101068.67;;;4.54;61.19
54588;BME280;40484;50.198;19.576;2022-12-07T08:10:58;101061.80;;;4.58;61.25
54588;BME280;40484;50.198;19.576;2022-12-07T08:16:05;101060.53;;;4.36;61.69
54588;BME280;40484;50.198;19.576;2022-12-07T08:21:08;101064.27;;;4.44;61.68
54588;BME280;40484;50.198;19.576;2022-12-07T08:26:11;101065.27;;;4.28;62.04
54588;BME280;40484;50.198;19.576;2022-12-07T08:31:16;101075.55;;;4.21;61.99
54588;BME280;40484;50.198;19.576;2022-12-07T08:36:17;101075.27;;;4.46;61.53
54588;BME280;40484;50.198;19.576;2022-12-07T08:41:19;101079.37;;;4.39;61.54
54588;BME280;40484;50.198;19.576;2022-12-07T08:46:22;101082.06;;;4.26;61.83
54588;BME280;40484;50.198;19.576;2022-12-07T08:51:24;101081.79;;;4.23;62.18
54588;BME280;40484;50.198;19.576;2022-12-07T08:56:26;101076.48;;;4.39;61.85
54588;BME280;40484;50.198;19.576;2022-12-07T09:01:28;101082.02;;;4.38;61.95
54588;BME280;40484;50.198;19.576;2022-12-07T09:06:30;101078.69;;;4.52;61.75
54588;BME280;40484;50.198;19.576;2022-12-07T09:11:33;101082.41;;;4.45;61.52
54588;BME280;40484;50.198;19.576;2022-12-07T09:16:34;101077.98;;;4.63;61.29
54588;BME280;40484;50.198;19.576;2022-12-07T09:21:36;101077.70;;;4.52;61.60
54588;BME280;40484;50.198;19.576;2022-12-07T09:27:04;101076.33;;;4.78;61.15
54588;BME280;40484;50.198;19.576;2022-12-07T09:32:05;101072.62;;;4.77;61.31
54588;BME280;40484;50.198;19.576;2022-12-07T09:37:07;101076.23;;;4.82;61.15
54588;BME280;40484;50.198;19.576;2022-12-07T09:42:11;101079.48;;;4.73;61.32
54588;BME280;40484;50.198;19.576;2022-12-07T09:47:12;101078.55;;;4.69;61.36
54588;BME280;40484;50.198;19.576;2022-12-07T09:52:27;101076.00;;;4.81;61.17
54588;BME280;40484;50.198;19.576;2022-12-07T09:57:32;101075.70;;;4.92;60.76
54588;BME280;40484;50.198;19.576;2022-12-07T10:02:46;101071.02;;;4.72;60.96
54588;BME280;40484;50.198;19.576;2022-12-07T10:07:47;101064.47;;;4.97;60.65
54588;BME280;40484;50.198;19.576;2022-12-07T10:13:05;101060.88;;;4.62;61.85
54588;BME280;40484;50.198;19.576;2022-12-07T10:18:17;101063.41;;;4.95;60.94
54588;BME280;40484;50.198;19.576;2022-12-07T10:23:18;101051.19;;;4.92;61.00
54588;BME280;40484;50.198;19.576;2022-12-07T10:28:44;101036.84;;;5.12;60.79
54588;BME280;40484;50.198;19.576;2022-12-07T10:33:55;101031.88;;;5.03;61.17
54588;BME280;40484;50.198;19.576;2022-12-07T10:39:18;101031.77;;;5.15;60.75
54588;BME280;40484;50.198;19.576;2022-12-07T10:44:07;101028.19;;;5.29;60.24
54588;BME280;40484;50.198;19.576;2022-12-07T10:54:51;101016.34;;;5.25;60.34
54588;BME280;40484;50.198;19.576;2022-12-07T11:00:04;101021.21;;;4.89;61.50
54588;BME280;40484;50.198;19.576;2022-12-07T11:05:06;101010.17;;;5.25;60.24
54588;BME280;40484;50.198;19.576;2022-12-07T11:10:22;101010.86;;;5.28;60.15
54588;BME280;40484;50.198;19.576;2022-12-07T11:16:25;101005.18;;;5.59;59.70
54588;BME280;40484;50.198;19.576;2022-12-07T11:21:30;101006.82;;;5.32;59.98
54588;BME280;40484;50.198;19.576;2022-12-07T11:26:49;101003.28;;;5.66;59.38
54588;BME280;40484;50.198;19.576;2022-12-07T11:32:00;100998.23;;;5.52;59.45
54588;BME280;40484;50.198;19.576;2022-12-07T11:37:01;100998.70;;;5.36;59.78
54588;BME280;40484;50.198;19.576;2022-12-07T11:42:06;100990.25;;;5.45;59.69
54588;BME280;40484;50.198;19.576;2022-12-07T11:52:58;100980.17;;;5.47;59.84
54588;BME280;40484;50.198;19.576;2022-12-07T11:58:05;100976.38;;;5.43;59.76
54588;BME280;40484;50.198;19.576;2022-12-07T12:03:12;100971.63;;;5.25;60.45
54588;BME280;40484;50.198;19.576;2022-12-07T12:08:15;100976.25;;;5.55;59.50
54588;BME280;40484;50.198;19.576;2022-12-07T12:18:58;100997.73;;;5.22;59.92
54588;BME280;40484;50.198;19.576;2022-12-07T12:24:04;100981.91;;;5.06;60.36
54588;BME280;40484;50.198;19.576;2022-12-07T12:29:07;100978.08;;;5.18;60.35
54588;BME280;40484;50.198;19.576;2022-12-07T12:34:30;100975.27;;;5.14;60.25
54588;BME280;40484;50.198;19.576;2022-12-07T12:45:25;100979.41;;;5.50;59.31
54588;BME280;40484;50.198;19.576;2022-12-07T12:50:31;100968.27;;;5.77;58.86
54588;BME280;40484;50.198;19.576;2022-12-07T13:00:46;100961.42;;;5.66;58.67
54588;BME280;40484;50.198;19.576;2022-12-07T13:05:48;100956.80;;;5.42;58.80
54588;BME280;40484;50.198;19.576;2022-12-07T13:10:49;100957.83;;;5.71;58.23
54588;BME280;40484;50.198;19.576;2022-12-07T13:15:52;100951.79;;;5.68;58.50
54588;BME280;40484;50.198;19.576;2022-12-07T13:26:17;100961.70;;;5.50;58.41
54588;BME280;40484;50.198;19.576;2022-12-07T13:31:57;100964.91;;;5.46;58.79
54588;BME280;40484;50.198;19.576;2022-12-07T13:36:57;100974.93;;;5.43;59.02
54588;BME280;40484;50.198;19.576;2022-12-07T13:41:59;100972.17;;;5.21;59.26
54588;BME280;40484;50.198;19.576;2022-12-07T13:47:31;100973.99;;;5.56;58.60
54588;BME280;40484;50.198;19.576;2022-12-07T13:52:30;100971.38;;;5.59;58.34
54588;BME280;40484;50.198;19.576;2022-12-07T13:57:33;100975.00;;;5.37;58.79
54588;BME280;40484;50.198;19.576;2022-12-07T14:02:36;100981.01;;;5.57;58.52
54588;BME280;40484;50.198;19.576;2022-12-07T14:07:57;100975.44;;;5.66;58.02
54588;BME280;40484;50.198;19.576;2022-12-07T14:13:00;100969.72;;;5.40;58.66
54588;BME280;40484;50.198;19.576;2022-12-07T14:18:02;100980.88;;;5.69;57.73
54588;BME280;40484;50.198;19.576;2022-12-07T14:23:31;100978.94;;;5.56;58.14
54588;BME280;40484;50.198;19.576;2022-12-07T14:28:35;100978.58;;;5.77;57.67
54588;BME280;40484;50.198;19.576;2022-12-07T14:33:37;100978.17;;;5.78;57.33
54588;BME280;40484;50.198;19.576;2022-12-07T14:38:39;100979.41;;;5.40;58.43
54588;BME280;40484;50.198;19.576;2022-12-07T14:43:41;100973.48;;;5.33;58.24
54588;BME280;40484;50.198;19.576;2022-12-07T14:48:42;100991.03;;;5.44;57.87
54588;BME280;40484;50.198;19.576;2022-12-07T14:53:48;100993.43;;;5.50;57.89
54588;BME280;40484;50.198;19.576;2022-12-07T14:58:50;100992.87;;;5.52;57.51
54588;BME280;40484;50.198;19.576;2022-12-07T15:03:52;100999.26;;;5.51;57.38
54588;BME280;40484;50.198;19.576;2022-12-07T15:08:53;101008.26;;;5.48;57.72
54588;BME280;40484;50.198;19.576;2022-12-07T15:16:34;101005.80;;;5.32;58.33
54588;BME280;40484;50.198;19.576;2022-12-07T15:21:36;101006.96;;;5.38;58.23
54588;BME280;40484;50.198;19.576;2022-12-07T15:26:38;101011.49;;;5.29;58.30
54588;BME280;40484;50.198;19.576;2022-12-07T15:31:41;101008.16;;;5.54;57.86
54588;BME280;40484;50.198;19.576;2022-12-07T15:36:42;101015.97;;;5.52;57.71
54588;BME280;40484;50.198;19.576;2022-12-07T15:41:44;101020.94;;;5.53;57.76
54588;BME280;40484;50.198;19.576;2022-12-07T15:46:45;101017.30;;;5.21;58.61
54588;BME280;40484;50.198;19.576;2022-12-07T15:51:47;101021.99;;;5.45;57.95
54588;BME280;40484;50.198;19.576;2022-12-07T15:56:49;101018.52;;;5.55;57.26
54588;BME280;40484;50.198;19.576;2022-12-07T16:01:50;101017.30;;;5.66;57.00
54588;BME280;40484;50.198;19.576;2022-12-07T16:06:52;101022.04;;;5.21;57.23
54588;BME280;40484;50.198;19.576;2022-12-07T16:11:53;101027.70;;;5.34;57.27
54588;BME280;40484;50.198;19.576;2022-12-07T16:16:55;101026.44;;;5.33;56.90
54588;BME280;40484;50.198;19.576;2022-12-07T16:21:56;101028.46;;;5.48;56.25
54588;BME280;40484;50.198;19.576;2022-12-07T16:26:58;101028.62;;;5.47;56.17
54588;BME280;40484;50.198;19.576;2022-12-07T16:32:00;101039.59;;;5.32;56.21
54588;BME280;40484;50.198;19.576;2022-12-07T16:37:02;101031.17;;;4.92;56.87
54588;BME280;40484;50.198;19.576;2022-12-07T16:42:04;101019.27;;;5.52;55.48
54588;BME280;40484;50.198;19.576;2022-12-07T16:47:05;101025.30;;;5.12;56.31
54588;BME280;40484;50.198;19.576;2022-12-07T16:52:07;101038.04;;;5.19;56.10
54588;BME280;40484;50.198;19.576;2022-12-07T16:57:08;101036.15;;;5.01;56.96
54588;BME280;40484;50.198;19.576;2022-12-07T17:02:34;101045.81;;;5.24;56.11
54588;BME280;40484;50.198;19.576;2022-12-07T17:07:36;101048.77;;;5.36;55.63
54588;BME280;40484;50.198;19.576;2022-12-07T17:12:37;101050.59;;;5.11;55.65
54588;BME280;40484;50.198;19.576;2022-12-07T17:17:39;101036.70;;;4.91;56.31
54588;BME280;40484;50.198;19.576;2022-12-07T17:22:41;101044.62;;;4.94;56.17
54588;BME280;40484;50.198;19.576;2022-12-07T17:27:43;101047.73;;;4.87;56.43
54588;BME280;40484;50.198;19.576;2022-12-07T17:32:45;101048.32;;;5.10;55.88
54588;BME280;40484;50.198;19.576;2022-12-07T17:37:47;101037.73;;;4.98;55.97
54588;BME280;40484;50.198;19.576;2022-12-07T17:42:48;101043.45;;;4.96;56.27
54588;BME280;40484;50.198;19.576;2022-12-07T17:47:51;101052.52;;;5.20;55.67
54588;BME280;40484;50.198;19.576;2022-12-07T17:52:52;101052.74;;;5.22;55.73
54588;BME280;40484;50.198;19.576;2022-12-07T17:58:12;101056.16;;;5.17;55.88
54588;BME280;40484;50.198;19.576;2022-12-07T18:03:13;101051.95;;;5.07;55.83
54588;BME280;40484;50.198;19.576;2022-12-07T18:08:15;101052.57;;;4.91;56.13
54588;BME280;40484;50.198;19.576;2022-12-07T18:13:17;101051.73;;;4.82;56.52
54588;BME280;40484;50.198;19.576;2022-12-07T18:19:04;101045.83;;;5.26;55.43
54588;BME280;40484;50.198;19.576;2022-12-07T18:24:08;101042.11;;;5.00;56.04
54588;BME280;40484;50.198;19.576;2022-12-07T18:29:11;101041.27;;;5.00;56.04
54588;BME280;40484;50.198;19.576;2022-12-07T18:34:14;101041.64;;;4.82;56.72
54588;BME280;40484;50.198;19.576;2022-12-07T18:39:16;101048.16;;;4.87;56.60
54588;BME280;40484;50.198;19.576;2022-12-07T18:44:18;101042.76;;;4.93;56.59
54588;BME280;40484;50.198;19.576;2022-12-07T18:49:20;101039.68;;;4.94;56.36
54588;BME280;40484;50.198;19.576;2022-12-07T18:54:21;101040.84;;;5.07;56.26
54588;BME280;40484;50.198;19.576;2022-12-07T18:59:23;101039.44;;;5.01;56.28
54588;BME280;40484;50.198;19.576;2022-12-07T19:04:46;101056.62;;;5.12;55.96
54588;BME280;40484;50.198;19.576;2022-12-07T19:09:48;101036.77;;;4.92;56.71
54588;BME280;40484;50.198;19.576;2022-12-07T19:14:50;101047.86;;;5.24;55.80
54588;BME280;40484;50.198;19.576;2022-12-07T19:19:52;101045.80;;;5.16;56.05
54588;BME280;40484;50.198;19.576;2022-12-07T19:24:54;101041.84;;;5.31;55.51
54588;BME280;40484;50.198;19.576;2022-12-07T19:29:57;101041.39;;;5.13;56.10
54588;BME280;40484;50.198;19.576;2022-12-07T19:35:00;101040.19;;;4.98;56.71
54588;BME280;40484;50.198;19.576;2022-12-07T19:40:27;101042.78;;;5.19;56.00
54588;BME280;40484;50.198;19.576;2022-12-07T19:45:28;101049.80;;;5.20;55.90
54588;BME280;40484;50.198;19.576;2022-12-07T19:50:32;101058.92;;;5.14;56.05
54588;BME280;40484;50.198;19.576;2022-12-07T19:55:37;101060.98;;;5.13;56.00
54588;BME280;40484;50.198;19.576;2022-12-07T20:00:39;101057.35;;;4.85;56.65
54588;BME280;40484;50.198;19.576;2022-12-07T20:05:40;101056.95;;;4.92;56.59
54588;BME280;40484;50.198;19.576;2022-12-07T20:10:43;101062.16;;;5.03;56.13
54588;BME280;40484;50.198;19.576;2022-12-07T20:15:45;101068.76;;;5.03;55.94
54588;BME280;40484;50.198;19.576;2022-12-07T20:20:58;101050.94;;;4.76;56.41
54588;BME280;40484;50.198;19.576;2022-12-07T20:26:02;101066.62;;;4.84;56.21
54588;BME280;40484;50.198;19.576;2022-12-07T20:31:05;101057.98;;;4.71;56.13
54588;BME280;40484;50.198;19.576;2022-12-07T20:36:07;101062.38;;;4.88;56.09
54588;BME280;40484;50.198;19.576;2022-12-07T20:41:12;101066.23;;;4.86;56.03
54588;BME280;40484;50.198;19.576;2022-12-07T20:47:17;101078.98;;;4.85;55.94
54588;BME280;40484;50.198;19.576;2022-12-07T20:52:19;101076.52;;;5.01;55.78
54588;BME280;40484;50.198;19.576;2022-12-07T20:57:22;101078.95;;;4.99;55.95
54588;BME280;40484;50.198;19.576;2022-12-07T21:02:24;101075.09;;;5.09;56.01
54588;BME280;40484;50.198;19.576;2022-12-07T21:07:26;101078.95;;;5.15;56.07
54588;BME280;40484;50.198;19.576;2022-12-07T21:12:28;101083.12;;;5.01;56.95
54588;BME280;40484;50.198;19.576;2022-12-07T21:17:29;101084.47;;;5.14;56.80
54588;BME280;40484;50.198;19.576;2022-12-07T21:22:31;101082.70;;;5.01;57.39
54588;BME280;40484;50.198;19.576;2022-12-07T21:27:33;101079.82;;;5.01;56.92
54588;BME280;40484;50.198;19.576;2022-12-07T21:32:34;101076.60;;;4.89;56.34
54588;BME280;40484;50.198;19.576;2022-12-07T21:37:36;101080.72;;;5.11;56.09
54588;BME280;40484;50.198;19.576;2022-12-07T21:42:37;101079.20;;;5.02;56.13
54588;BME280;40484;50.198;19.576;2022-12-07T21:47:39;101087.95;;;5.29;55.31
54588;BME280;40484;50.198;19.576;2022-12-07T21:52:40;101077.59;;;4.94;56.31
54588;BME280;40484;50.198;19.576;2022-12-07T21:57:42;101083.54;;;4.78;56.31
54588;BME280;40484;50.198;19.576;2022-12-07T22:02:43;101080.56;;;5.14;55.55
54588;BME280;40484;50.198;19.576;2022-12-07T22:07:45;101094.48;;;5.18;55.32
54588;BME280;40484;50.198;19.576;2022-12-07T22:12:46;101090.16;;;5.18;55.16
54588;BME280;40484;50.198;19.576;2022-12-07T22:17:48;101097.03;;;5.13;55.13
54588;BME280;40484;50.198;19.576;2022-12-07T22:22:50;101100.89;;;5.19;54.93
54588;BME280;40484;50.198;19.576;2022-12-07T22:27:51;101101.08;;;5.34;54.73
54588;BME280;40484;50.198;19.576;2022-12-07T22:32:53;101100.91;;;4.51;56.63
54588;BME280;40484;50.198;19.576;2022-12-07T22:38:19;101095.39;;;4.98;55.54
54588;BME280;40484;50.198;19.576;2022-12-07T22:43:21;101091.72;;;5.07;55.44
54588;BME280;40484;50.198;19.576;2022-12-07T22:48:22;101104.25;;;5.21;54.80
54588;BME280;40484;50.198;19.576;2022-12-07T22:53:24;101097.23;;;5.20;54.75
54588;BME280;40484;50.198;19.576;2022-12-07T22:58:25;101105.13;;;5.16;55.04
54588;BME280;40484;50.198;19.576;2022-12-07T23:03:27;101094.88;;;5.34;54.57
54588;BME280;40484;50.198;19.576;2022-12-07T23:08:29;101086.35;;;5.30;54.71
54588;BME280;40484;50.198;19.576;2022-12-07T23:13:30;101093.02;;;5.26;54.79
54588;BME280;40484;50.198;19.576;2022-12-07T23:18:32;101090.29;;;5.31;54.78
54588;BME280;40484;50.198;19.576;2022-12-07T23:23:34;101087.30;;;5.20;55.11
54588;BME280;40484;50.198;19.576;2022-12-07T23:28:36;101096.54;;;4.80;55.89
54588;BME280;40484;50.198;19.576;2022-12-07T23:33:38;101102.19;;;4.90;55.56
54588;BME280;40484;50.198;19.576;2022-12-07T23:38:41;101091.27;;;5.21;54.91
54588;BME280;40484;50.198;19.576;2022-12-07T23:43:43;101090.50;;;4.69;56.31
54588;BME280;40484;50.198;19.576;2022-12-07T23:48:46;101090.70;;;4.92;55.95
54588;BME280;40484;50.198;19.576;2022-12-07T23:53:49;101090.80;;;5.03;55.52
54588;BME280;40484;50.198;19.576;2022-12-07T23:58:52;101091.72;;;4.92;55.79
